Craig Municipal Airport
KCRG : now visible

Airfield :











YOU CAN JOIN US ON...

 
LOGIN :

Register | Disclaimer

   EN    FR    IT 

 









Legend :    VFR   Marginal VFR   IFR   Intensive IFR   Very Intensive IFR
Visi :
Ceiling :
>= 8 km
>= 3000ft
5 to 8 km
1000 to 3000 ft
1500m to 5 km
500 to 1000 ft
800 to 1500m
200 to 500 ft
< 800m
< 200 ft
Symbols :   Thunderstorms  Fog  Heavy snow  Heavy precipitations  Wind > 20 kt






- Airport Elevation : 41 ft


KCRG - Craig Municipal

CURRENT METAR :
  • 170253Z 15003KT 10SM CLR 16/16 A3006 RMK AO2 RAE07 SLP177 P0000 60002 T01560156 56023

EXPIRED METARs :
  • 170153Z 13009KT 9SM -RA OVC110 15/14 A3006 RMK AO2 RAB18 PRESFR SLP178 P0001 T01500144
  • 170053Z 06004KT 10SM SCT080 OVC110 15/14 A3012 RMK AO2 RAE08 SLP199 P0001 T01500144
  • 170035Z 08003KT 10SM FEW006 OVC110 15/14 A3012 RMK AO2 RAE08 P0001 T01500144

TAF KCRG
Valid from the 17 at 02:00 until the 18 at 00:00 UTC


170210Z 1702/1724 12008KT 4SM -DZ BR SCT003 OVC008
FM170500 VRB03KT 3SM BR VCSH SCT003 OVC008
FM171000 VRB04KT 2SM BR OVC002
FM171500 03007KT 3SM BR BKN003 OVC005
FM171800 05009KT 6SM BR SCT008 BKN015



MET'MAP, your aeronautical weather chart ! - Copyright ORBIFLY December 2007 - Disclaimer

ORBIFLY MET'MAP TEAM :

Programming & Development : Alexandra Zaïnal
Concept & original design : Baudouin d'Aumeries
Assistance for programming : Marc-Olivier Méhu
Technical & hardware support : Manuel Goepfert

Contact : metmap@orbifly.com




SOURCES & CREDITS :

   NOAA       Earth
Advisory